sensor_id;sensor_type;location;lat;lon;timestamp;P1;durP1;ratioP1;P2;durP2;ratioP2
15990;SDS011;8100;50.994;4.538;2022-12-10T00:02:34;27.45;;;14.30;;
15990;SDS011;8100;50.994;4.538;2022-12-10T00:05:21;24.83;;;14.02;;
15990;SDS011;8100;50.994;4.538;2022-12-10T00:08:08;25.58;;;13.80;;
15990;SDS011;8100;50.994;4.538;2022-12-10T00:10:55;26.75;;;14.13;;
15990;SDS011;8100;50.994;4.538;2022-12-10T00:13:43;26.45;;;14.27;;
15990;SDS011;8100;50.994;4.538;2022-12-10T00:16:33;25.77;;;14.65;;
15990;SDS011;8100;50.994;4.538;2022-12-10T00:19:20;29.63;;;15.32;;
15990;SDS011;8100;50.994;4.538;2022-12-10T00:22:07;27.42;;;14.85;;
15990;SDS011;8100;50.994;4.538;2022-12-10T00:24:55;27.65;;;14.45;;
15990;SDS011;8100;50.994;4.538;2022-12-10T00:27:42;27.92;;;15.25;;
15990;SDS011;8100;50.994;4.538;2022-12-10T00:30:29;26.70;;;14.68;;
15990;SDS011;8100;50.994;4.538;2022-12-10T00:33:18;30.92;;;15.88;;
15990;SDS011;8100;50.994;4.538;2022-12-10T00:36:06;31.42;;;15.68;;
15990;SDS011;8100;50.994;4.538;2022-12-10T00:38:55;30.83;;;16.30;;
15990;SDS011;8100;50.994;4.538;2022-12-10T00:41:43;30.80;;;16.25;;
15990;SDS011;8100;50.994;4.538;2022-12-10T00:44:30;30.73;;;16.52;;
15990;SDS011;8100;50.994;4.538;2022-12-10T00:47:17;29.77;;;15.73;;
15990;SDS011;8100;50.994;4.538;2022-12-10T00:50:06;31.02;;;15.65;;
15990;SDS011;8100;50.994;4.538;2022-12-10T00:52:54;30.42;;;16.38;;
15990;SDS011;8100;50.994;4.538;2022-12-10T00:55:41;34.47;;;16.65;;
15990;SDS011;8100;50.994;4.538;2022-12-10T00:58:30;36.97;;;18.42;;
15990;SDS011;8100;50.994;4.538;2022-12-10T01:01:19;31.63;;;16.30;;
15990;SDS011;8100;50.994;4.538;2022-12-10T01:04:08;34.50;;;16.23;;
15990;SDS011;8100;50.994;4.538;2022-12-10T01:06:58;33.42;;;17.52;;
15990;SDS011;8100;50.994;4.538;2022-12-10T01:09:46;37.65;;;18.85;;
15990;SDS011;8100;50.994;4.538;2022-12-10T01:12:33;37.70;;;18.65;;
15990;SDS011;8100;50.994;4.538;2022-12-10T01:15:20;33.97;;;17.70;;
15990;SDS011;8100;50.994;4.538;2022-12-10T01:18:07;38.72;;;17.95;;
15990;SDS011;8100;50.994;4.538;2022-12-10T01:20:54;35.33;;;17.60;;
15990;SDS011;8100;50.994;4.538;2022-12-10T01:23:45;38.33;;;18.50;;
15990;SDS011;8100;50.994;4.538;2022-12-10T01:26:34;34.38;;;17.08;;
15990;SDS011;8100;50.994;4.538;2022-12-10T01:29:21;35.28;;;18.42;;
15990;SDS011;8100;50.994;4.538;2022-12-10T01:32:09;35.90;;;16.83;;
15990;SDS011;8100;50.994;4.538;2022-12-10T01:34:56;38.22;;;18.40;;
15990;SDS011;8100;50.994;4.538;2022-12-10T01:37:43;39.75;;;18.90;;
15990;SDS011;8100;50.994;4.538;2022-12-10T01:40:36;38.67;;;18.23;;
15990;SDS011;8100;50.994;4.538;2022-12-10T01:43:24;36.28;;;17.58;;
15990;SDS011;8100;50.994;4.538;2022-12-10T01:46:11;37.15;;;18.95;;
15990;SDS011;8100;50.994;4.538;2022-12-10T01:48:59;37.17;;;18.25;;
15990;SDS011;8100;50.994;4.538;2022-12-10T01:51:50;37.00;;;18.67;;
15990;SDS011;8100;50.994;4.538;2022-12-10T01:54:40;41.63;;;19.83;;
15990;SDS011;8100;50.994;4.538;2022-12-10T01:57:30;38.22;;;17.95;;
15990;SDS011;8100;50.994;4.538;2022-12-10T02:00:17;37.05;;;18.52;;
15990;SDS011;8100;50.994;4.538;2022-12-10T02:03:05;37.75;;;18.75;;
15990;SDS011;8100;50.994;4.538;2022-12-10T02:06:01;41.95;;;19.25;;
15990;SDS011;8100;50.994;4.538;2022-12-10T02:09:01;39.72;;;19.73;;
15990;SDS011;8100;50.994;4.538;2022-12-10T02:11:58;40.97;;;19.20;;
15990;SDS011;8100;50.994;4.538;2022-12-10T02:14:53;40.72;;;18.30;;
15990;SDS011;8100;50.994;4.538;2022-12-10T02:17:45;39.75;;;19.27;;
15990;SDS011;8100;50.994;4.538;2022-12-10T02:20:36;40.95;;;19.40;;
15990;SDS011;8100;50.994;4.538;2022-12-10T02:23:28;37.85;;;19.45;;
15990;SDS011;8100;50.994;4.538;2022-12-10T02:26:21;38.95;;;19.23;;
15990;SDS011;8100;50.994;4.538;2022-12-10T02:29:13;36.30;;;18.45;;
15990;SDS011;8100;50.994;4.538;2022-12-10T02:32:03;42.83;;;19.73;;
15990;SDS011;8100;50.994;4.538;2022-12-10T02:34:54;40.10;;;18.13;;
15990;SDS011;8100;50.994;4.538;2022-12-10T02:37:45;38.72;;;17.92;;
15990;SDS011;8100;50.994;4.538;2022-12-10T02:40:35;43.40;;;18.88;;
15990;SDS011;8100;50.994;4.538;2022-12-10T02:43:25;42.45;;;19.95;;
15990;SDS011;8100;50.994;4.538;2022-12-10T02:46:16;37.63;;;19.38;;
15990;SDS011;8100;50.994;4.538;2022-12-10T02:49:03;39.70;;;18.67;;
15990;SDS011;8100;50.994;4.538;2022-12-10T02:51:52;44.28;;;20.42;;
15990;SDS011;8100;50.994;4.538;2022-12-10T02:54:40;45.70;;;20.77;;
15990;SDS011;8100;50.994;4.538;2022-12-10T02:57:31;42.75;;;19.73;;
15990;SDS011;8100;50.994;4.538;2022-12-10T03:00:23;40.72;;;19.42;;
15990;SDS011;8100;50.994;4.538;2022-12-10T03:03:16;44.90;;;20.38;;
15990;SDS011;8100;50.994;4.538;2022-12-10T03:06:20;42.25;;;20.30;;
15990;SDS011;8100;50.994;4.538;2022-12-10T03:09:15;43.92;;;20.73;;
15990;SDS011;8100;50.994;4.538;2022-12-10T03:12:08;44.28;;;19.98;;
15990;SDS011;8100;50.994;4.538;2022-12-10T03:15:04;44.08;;;20.40;;
15990;SDS011;8100;50.994;4.538;2022-12-10T03:17:54;42.85;;;19.38;;
15990;SDS011;8100;50.994;4.538;2022-12-10T03:20:44;43.97;;;21.35;;
15990;SDS011;8100;50.994;4.538;2022-12-10T03:23:33;41.35;;;20.67;;
15990;SDS011;8100;50.994;4.538;2022-12-10T03:26:22;46.72;;;21.05;;
15990;SDS011;8100;50.994;4.538;2022-12-10T03:29:12;45.60;;;21.58;;
15990;SDS011;8100;50.994;4.538;2022-12-10T03:32:04;42.92;;;19.77;;
15990;SDS011;8100;50.994;4.538;2022-12-10T03:34:54;43.05;;;21.40;;
15990;SDS011;8100;50.994;4.538;2022-12-10T03:37:44;46.08;;;22.15;;
15990;SDS011;8100;50.994;4.538;2022-12-10T03:40:32;46.15;;;20.85;;
15990;SDS011;8100;50.994;4.538;2022-12-10T03:43:20;43.47;;;20.35;;
15990;SDS011;8100;50.994;4.538;2022-12-10T03:46:08;45.92;;;21.13;;
15990;SDS011;8100;50.994;4.538;2022-12-10T03:48:55;45.65;;;21.48;;
15990;SDS011;8100;50.994;4.538;2022-12-10T03:51:43;50.92;;;23.42;;
15990;SDS011;8100;50.994;4.538;2022-12-10T03:54:32;47.30;;;21.88;;
15990;SDS011;8100;50.994;4.538;2022-12-10T03:57:19;47.40;;;21.90;;
15990;SDS011;8100;50.994;4.538;2022-12-10T04:00:06;51.97;;;24.10;;
15990;SDS011;8100;50.994;4.538;2022-12-10T04:02:55;49.83;;;23.92;;
15990;SDS011;8100;50.994;4.538;2022-12-10T04:05:42;51.85;;;24.77;;
15990;SDS011;8100;50.994;4.538;2022-12-10T04:08:29;52.70;;;24.65;;
15990;SDS011;8100;50.994;4.538;2022-12-10T04:11:18;53.47;;;24.88;;
15990;SDS011;8100;50.994;4.538;2022-12-10T04:14:05;51.65;;;24.25;;
15990;SDS011;8100;50.994;4.538;2022-12-10T04:17:12;52.70;;;23.90;;
15990;SDS011;8100;50.994;4.538;2022-12-10T04:19:59;49.55;;;23.98;;
15990;SDS011;8100;50.994;4.538;2022-12-10T04:22:46;50.47;;;24.80;;
15990;SDS011;8100;50.994;4.538;2022-12-10T04:25:51;51.00;;;24.50;;
15990;SDS011;8100;50.994;4.538;2022-12-10T04:28:57;50.08;;;23.80;;
15990;SDS011;8100;50.994;4.538;2022-12-10T04:31:44;48.55;;;24.00;;
15990;SDS011;8100;50.994;4.538;2022-12-10T04:34:31;50.70;;;24.98;;
15990;SDS011;8100;50.994;4.538;2022-12-10T04:37:18;50.70;;;24.88;;
15990;SDS011;8100;50.994;4.538;2022-12-10T04:40:06;50.20;;;23.25;;
15990;SDS011;8100;50.994;4.538;2022-12-10T04:42:54;47.63;;;23.40;;
15990;SDS011;8100;50.994;4.538;2022-12-10T04:45:43;46.38;;;23.95;;
15990;SDS011;8100;50.994;4.538;2022-12-10T04:48:30;50.53;;;25.25;;
15990;SDS011;8100;50.994;4.538;2022-12-10T04:51:17;52.92;;;25.33;;
15990;SDS011;8100;50.994;4.538;2022-12-10T04:54:05;46.33;;;23.00;;
15990;SDS011;8100;50.994;4.538;2022-12-10T04:56:53;48.25;;;23.52;;
15990;SDS011;8100;50.994;4.538;2022-12-10T04:59:40;48.72;;;24.13;;
15990;SDS011;8100;50.994;4.538;2022-12-10T05:02:29;50.30;;;24.88;;
15990;SDS011;8100;50.994;4.538;2022-12-10T05:05:19;49.58;;;22.98;;
15990;SDS011;8100;50.994;4.538;2022-12-10T05:08:06;47.58;;;23.15;;
15990;SDS011;8100;50.994;4.538;2022-12-10T05:10:54;47.40;;;22.63;;
15990;SDS011;8100;50.994;4.538;2022-12-10T05:13:41;47.00;;;23.67;;
15990;SDS011;8100;50.994;4.538;2022-12-10T05:16:29;50.60;;;24.85;;
15990;SDS011;8100;50.994;4.538;2022-12-10T05:19:19;52.28;;;24.83;;
15990;SDS011;8100;50.994;4.538;2022-12-10T05:22:07;55.15;;;26.20;;
15990;SDS011;8100;50.994;4.538;2022-12-10T05:25:12;50.53;;;25.42;;
15990;SDS011;8100;50.994;4.538;2022-12-10T05:28:00;49.20;;;24.00;;
15990;SDS011;8100;50.994;4.538;2022-12-10T05:30:47;50.47;;;24.52;;
15990;SDS011;8100;50.994;4.538;2022-12-10T05:33:35;50.88;;;24.95;;
15990;SDS011;8100;50.994;4.538;2022-12-10T05:36:24;54.38;;;25.05;;
15990;SDS011;8100;50.994;4.538;2022-12-10T05:39:13;55.10;;;26.88;;
15990;SDS011;8100;50.994;4.538;2022-12-10T05:42:00;57.47;;;27.00;;
15990;SDS011;8100;50.994;4.538;2022-12-10T05:44:48;55.85;;;26.52;;
15990;SDS011;8100;50.994;4.538;2022-12-10T05:47:35;58.97;;;27.08;;
15990;SDS011;8100;50.994;4.538;2022-12-10T05:50:22;55.20;;;26.67;;
15990;SDS011;8100;50.994;4.538;2022-12-10T05:53:11;60.15;;;26.50;;
15990;SDS011;8100;50.994;4.538;2022-12-10T05:55:59;58.15;;;26.98;;
15990;SDS011;8100;50.994;4.538;2022-12-10T05:58:47;55.33;;;25.25;;
15990;SDS011;8100;50.994;4.538;2022-12-10T06:01:38;54.30;;;25.63;;
15990;SDS011;8100;50.994;4.538;2022-12-10T06:04:25;55.05;;;25.65;;
15990;SDS011;8100;50.994;4.538;2022-12-10T06:07:12;58.78;;;27.27;;
15990;SDS011;8100;50.994;4.538;2022-12-10T06:10:01;65.30;;;27.92;;
15990;SDS011;8100;50.994;4.538;2022-12-10T06:12:48;58.08;;;26.60;;
15990;SDS011;8100;50.994;4.538;2022-12-10T06:15:37;62.50;;;27.42;;
15990;SDS011;8100;50.994;4.538;2022-12-10T06:18:25;62.50;;;27.08;;
15990;SDS011;8100;50.994;4.538;2022-12-10T06:21:13;61.88;;;26.65;;
15990;SDS011;8100;50.994;4.538;2022-12-10T06:24:02;62.80;;;27.98;;
15990;SDS011;8100;50.994;4.538;2022-12-10T06:26:50;63.13;;;27.92;;
15990;SDS011;8100;50.994;4.538;2022-12-10T06:29:38;63.42;;;26.45;;
15990;SDS011;8100;50.994;4.538;2022-12-10T06:32:25;59.72;;;26.33;;
15990;SDS011;8100;50.994;4.538;2022-12-10T06:35:12;60.78;;;26.92;;
15990;SDS011;8100;50.994;4.538;2022-12-10T06:38:00;58.60;;;24.90;;
15990;SDS011;8100;50.994;4.538;2022-12-10T06:40:47;58.40;;;24.90;;
15990;SDS011;8100;50.994;4.538;2022-12-10T06:43:35;53.88;;;24.60;;
15990;SDS011;8100;50.994;4.538;2022-12-10T06:46:23;56.38;;;23.95;;
15990;SDS011;8100;50.994;4.538;2022-12-10T06:49:10;53.65;;;23.52;;
15990;SDS011;8100;50.994;4.538;2022-12-10T06:51:58;56.72;;;24.35;;
15990;SDS011;8100;50.994;4.538;2022-12-10T06:54:45;55.40;;;23.13;;
15990;SDS011;8100;50.994;4.538;2022-12-10T06:57:32;56.50;;;24.48;;
15990;SDS011;8100;50.994;4.538;2022-12-10T07:00:21;56.35;;;24.63;;
15990;SDS011;8100;50.994;4.538;2022-12-10T07:03:08;58.45;;;25.20;;
15990;SDS011;8100;50.994;4.538;2022-12-10T07:05:56;53.00;;;23.45;;
15990;SDS011;8100;50.994;4.538;2022-12-10T07:08:44;54.95;;;24.00;;
15990;SDS011;8100;50.994;4.538;2022-12-10T07:11:31;52.15;;;22.70;;
15990;SDS011;8100;50.994;4.538;2022-12-10T07:14:18;57.50;;;24.55;;
15990;SDS011;8100;50.994;4.538;2022-12-10T07:17:07;54.78;;;23.73;;
15990;SDS011;8100;50.994;4.538;2022-12-10T07:19:54;53.03;;;24.33;;
15990;SDS011;8100;50.994;4.538;2022-12-10T07:22:41;59.80;;;23.77;;
15990;SDS011;8100;50.994;4.538;2022-12-10T07:25:28;57.50;;;24.13;;
15990;SDS011;8100;50.994;4.538;2022-12-10T07:28:16;53.80;;;22.85;;
15990;SDS011;8100;50.994;4.538;2022-12-10T07:31:04;50.97;;;23.48;;
15990;SDS011;8100;50.994;4.538;2022-12-10T07:33:56;48.30;;;22.38;;
15990;SDS011;8100;50.994;4.538;2022-12-10T07:36:44;43.30;;;19.90;;
15990;SDS011;8100;50.994;4.538;2022-12-10T07:39:31;53.38;;;21.58;;
15990;SDS011;8100;50.994;4.538;2022-12-10T07:42:19;42.35;;;20.15;;
15990;SDS011;8100;50.994;4.538;2022-12-10T07:45:06;53.38;;;23.05;;
15990;SDS011;8100;50.994;4.538;2022-12-10T07:47:54;47.60;;;21.05;;
15990;SDS011;8100;50.994;4.538;2022-12-10T07:50:43;51.10;;;19.48;;
15990;SDS011;8100;50.994;4.538;2022-12-10T07:53:30;41.75;;;19.63;;
15990;SDS011;8100;50.994;4.538;2022-12-10T07:56:18;47.22;;;21.08;;
15990;SDS011;8100;50.994;4.538;2022-12-10T07:59:06;49.55;;;20.85;;
15990;SDS011;8100;50.994;4.538;2022-12-10T08:01:54;51.53;;;20.85;;
15990;SDS011;8100;50.994;4.538;2022-12-10T08:04:41;54.33;;;22.65;;
15990;SDS011;8100;50.994;4.538;2022-12-10T08:07:29;52.40;;;20.73;;
15990;SDS011;8100;50.994;4.538;2022-12-10T08:10:16;49.25;;;21.67;;
15990;SDS011;8100;50.994;4.538;2022-12-10T08:13:05;51.00;;;19.85;;
15990;SDS011;8100;50.994;4.538;2022-12-10T08:15:52;42.45;;;19.08;;
15990;SDS011;8100;50.994;4.538;2022-12-10T08:18:40;41.17;;;19.05;;
15990;SDS011;8100;50.994;4.538;2022-12-10T08:21:28;46.72;;;19.17;;
15990;SDS011;8100;50.994;4.538;2022-12-10T08:24:18;48.15;;;20.88;;
15990;SDS011;8100;50.994;4.538;2022-12-10T08:27:05;49.25;;;20.77;;
15990;SDS011;8100;50.994;4.538;2022-12-10T08:29:52;46.25;;;19.55;;
15990;SDS011;8100;50.994;4.538;2022-12-10T08:32:39;46.38;;;19.38;;
15990;SDS011;8100;50.994;4.538;2022-12-10T08:35:27;48.33;;;20.67;;
15990;SDS011;8100;50.994;4.538;2022-12-10T08:38:14;49.05;;;21.40;;
15990;SDS011;8100;50.994;4.538;2022-12-10T08:41:06;47.67;;;20.30;;
15990;SDS011;8100;50.994;4.538;2022-12-10T08:43:54;47.22;;;20.63;;
15990;SDS011;8100;50.994;4.538;2022-12-10T08:46:41;48.20;;;19.30;;
15990;SDS011;8100;50.994;4.538;2022-12-10T08:49:28;43.97;;;19.60;;
15990;SDS011;8100;50.994;4.538;2022-12-10T08:52:16;42.33;;;19.02;;
15990;SDS011;8100;50.994;4.538;2022-12-10T08:55:03;37.17;;;17.08;;
15990;SDS011;8100;50.994;4.538;2022-12-10T08:57:54;39.28;;;18.10;;
15990;SDS011;8100;50.994;4.538;2022-12-10T09:00:43;43.35;;;19.05;;
15990;SDS011;8100;50.994;4.538;2022-12-10T09:03:30;41.58;;;18.75;;
15990;SDS011;8100;50.994;4.538;2022-12-10T09:06:18;44.60;;;17.70;;
15990;SDS011;8100;50.994;4.538;2022-12-10T09:09:07;45.22;;;19.40;;
15990;SDS011;8100;50.994;4.538;2022-12-10T09:11:54;42.42;;;19.63;;
15990;SDS011;8100;50.994;4.538;2022-12-10T09:14:43;43.90;;;19.08;;
15990;SDS011;8100;50.994;4.538;2022-12-10T09:17:30;44.65;;;18.65;;
15990;SDS011;8100;50.994;4.538;2022-12-10T09:20:17;46.20;;;19.95;;
15990;SDS011;8100;50.994;4.538;2022-12-10T09:23:05;43.65;;;18.98;;
15990;SDS011;8100;50.994;4.538;2022-12-10T09:25:52;42.97;;;19.10;;
15990;SDS011;8100;50.994;4.538;2022-12-10T09:28:39;46.47;;;19.90;;
15990;SDS011;8100;50.994;4.538;2022-12-10T09:31:28;46.88;;;19.83;;
15990;SDS011;8100;50.994;4.538;2022-12-10T09:34:15;44.05;;;18.92;;
15990;SDS011;8100;50.994;4.538;2022-12-10T09:37:02;42.88;;;18.63;;
15990;SDS011;8100;50.994;4.538;2022-12-10T09:39:49;45.17;;;19.70;;
15990;SDS011;8100;50.994;4.538;2022-12-10T09:42:39;41.17;;;18.40;;
15990;SDS011;8100;50.994;4.538;2022-12-10T09:45:36;43.33;;;20.10;;
15990;SDS011;8100;50.994;4.538;2022-12-10T09:48:32;41.42;;;18.10;;
15990;SDS011;8100;50.994;4.538;2022-12-10T09:51:28;45.35;;;18.65;;
15990;SDS011;8100;50.994;4.538;2022-12-10T09:54:19;46.83;;;18.92;;
15990;SDS011;8100;50.994;4.538;2022-12-10T09:57:14;45.08;;;18.98;;
15990;SDS011;8100;50.994;4.538;2022-12-10T10:00:15;44.35;;;18.67;;
15990;SDS011;8100;50.994;4.538;2022-12-10T10:03:05;44.75;;;19.40;;
15990;SDS011;8100;50.994;4.538;2022-12-10T10:05:54;47.35;;;20.05;;
15990;SDS011;8100;50.994;4.538;2022-12-10T10:08:43;47.75;;;19.77;;
15990;SDS011;8100;50.994;4.538;2022-12-10T10:11:33;45.03;;;20.88;;
15990;SDS011;8100;50.994;4.538;2022-12-10T10:14:22;47.70;;;20.00;;
15990;SDS011;8100;50.994;4.538;2022-12-10T10:17:14;43.13;;;19.85;;
15990;SDS011;8100;50.994;4.538;2022-12-10T10:20:06;42.15;;;18.55;;
15990;SDS011;8100;50.994;4.538;2022-12-10T10:22:55;46.60;;;18.92;;
15990;SDS011;8100;50.994;4.538;2022-12-10T10:25:44;42.15;;;18.67;;
15990;SDS011;8100;50.994;4.538;2022-12-10T10:28:31;40.08;;;17.90;;
15990;SDS011;8100;50.994;4.538;2022-12-10T10:31:20;43.45;;;19.38;;
15990;SDS011;8100;50.994;4.538;2022-12-10T10:34:13;45.90;;;18.48;;
15990;SDS011;8100;50.994;4.538;2022-12-10T10:37:03;40.97;;;17.13;;
15990;SDS011;8100;50.994;4.538;2022-12-10T10:39:52;43.30;;;18.05;;
15990;SDS011;8100;50.994;4.538;2022-12-10T10:42:40;38.58;;;17.17;;
15990;SDS011;8100;50.994;4.538;2022-12-10T10:45:36;43.58;;;18.73;;
15990;SDS011;8100;50.994;4.538;2022-12-10T10:48:26;43.60;;;18.95;;
15990;SDS011;8100;50.994;4.538;2022-12-10T10:51:17;45.08;;;18.67;;
15990;SDS011;8100;50.994;4.538;2022-12-10T10:54:08;41.58;;;18.20;;
15990;SDS011;8100;50.994;4.538;2022-12-10T10:56:57;42.00;;;17.90;;
15990;SDS011;8100;50.994;4.538;2022-12-10T10:59:47;43.47;;;18.98;;
15990;SDS011;8100;50.994;4.538;2022-12-10T11:02:35;44.92;;;18.30;;
15990;SDS011;8100;50.994;4.538;2022-12-10T11:05:24;43.67;;;18.33;;
15990;SDS011;8100;50.994;4.538;2022-12-10T11:08:13;41.80;;;18.35;;
15990;SDS011;8100;50.994;4.538;2022-12-10T11:11:04;46.30;;;19.70;;
15990;SDS011;8100;50.994;4.538;2022-12-10T11:14:06;49.13;;;20.33;;
15990;SDS011;8100;50.994;4.538;2022-12-10T11:17:03;46.47;;;19.25;;
15990;SDS011;8100;50.994;4.538;2022-12-10T11:20:15;56.03;;;21.27;;
15990;SDS011;8100;50.994;4.538;2022-12-10T11:23:08;47.28;;;20.38;;
15990;SDS011;8100;50.994;4.538;2022-12-10T11:26:00;48.10;;;20.30;;
15990;SDS011;8100;50.994;4.538;2022-12-10T11:29:08;47.53;;;20.20;;
15990;SDS011;8100;50.994;4.538;2022-12-10T11:32:08;44.95;;;19.10;;
15990;SDS011;8100;50.994;4.538;2022-12-10T11:35:10;45.83;;;19.83;;
15990;SDS011;8100;50.994;4.538;2022-12-10T11:38:02;48.05;;;20.42;;
15990;SDS011;8100;50.994;4.538;2022-12-10T11:40:58;44.83;;;19.48;;
15990;SDS011;8100;50.994;4.538;2022-12-10T11:47:15;38.35;;;16.45;;
15990;SDS011;8100;50.994;4.538;2022-12-10T11:50:15;36.17;;;15.98;;
15990;SDS011;8100;50.994;4.538;2022-12-10T11:53:15;38.90;;;16.80;;
15990;SDS011;8100;50.994;4.538;2022-12-10T11:56:18;42.47;;;18.30;;
15990;SDS011;8100;50.994;4.538;2022-12-10T11:59:13;41.63;;;17.33;;
15990;SDS011;8100;50.994;4.538;2022-12-10T12:02:15;45.67;;;19.38;;
15990;SDS011;8100;50.994;4.538;2022-12-10T12:05:19;41.28;;;17.55;;
15990;SDS011;8100;50.994;4.538;2022-12-10T12:08:15;39.25;;;18.10;;
15990;SDS011;8100;50.994;4.538;2022-12-10T12:11:13;42.00;;;17.63;;
15990;SDS011;8100;50.994;4.538;2022-12-10T12:14:12;45.55;;;19.15;;
15990;SDS011;8100;50.994;4.538;2022-12-10T12:17:07;48.58;;;19.08;;
15990;SDS011;8100;50.994;4.538;2022-12-10T12:20:02;44.25;;;19.88;;
15990;SDS011;8100;50.994;4.538;2022-12-10T12:22:53;45.22;;;18.05;;
15990;SDS011;8100;50.994;4.538;2022-12-10T12:25:45;43.38;;;18.55;;
15990;SDS011;8100;50.994;4.538;2022-12-10T12:28:35;46.03;;;19.92;;
15990;SDS011;8100;50.994;4.538;2022-12-10T12:31:26;45.05;;;19.23;;
15990;SDS011;8100;50.994;4.538;2022-12-10T12:34:21;46.55;;;19.02;;
15990;SDS011;8100;50.994;4.538;2022-12-10T12:37:12;43.28;;;17.25;;
15990;SDS011;8100;50.994;4.538;2022-12-10T12:40:09;42.53;;;17.70;;
15990;SDS011;8100;50.994;4.538;2022-12-10T12:43:01;44.83;;;19.20;;
15990;SDS011;8100;50.994;4.538;2022-12-10T12:45:51;42.92;;;18.85;;
15990;SDS011;8100;50.994;4.538;2022-12-10T12:48:42;44.10;;;18.25;;
15990;SDS011;8100;50.994;4.538;2022-12-10T12:51:37;43.30;;;17.52;;
15990;SDS011;8100;50.994;4.538;2022-12-10T12:54:28;43.88;;;18.88;;
15990;SDS011;8100;50.994;4.538;2022-12-10T12:57:18;48.25;;;19.05;;
15990;SDS011;8100;50.994;4.538;2022-12-10T13:00:14;47.65;;;18.95;;
15990;SDS011;8100;50.994;4.538;2022-12-10T13:03:07;42.88;;;18.30;;
15990;SDS011;8100;50.994;4.538;2022-12-10T13:06:16;44.58;;;18.48;;
15990;SDS011;8100;50.994;4.538;2022-12-10T13:09:23;44.08;;;18.90;;
15990;SDS011;8100;50.994;4.538;2022-12-10T13:12:17;45.88;;;18.77;;
15990;SDS011;8100;50.994;4.538;2022-12-10T13:15:16;46.33;;;19.25;;
15990;SDS011;8100;50.994;4.538;2022-12-10T13:21:26;46.90;;;18.67;;
15990;SDS011;8100;50.994;4.538;2022-12-10T13:24:19;44.28;;;18.58;;
15990;SDS011;8100;50.994;4.538;2022-12-10T13:27:14;41.38;;;17.88;;
15990;SDS011;8100;50.994;4.538;2022-12-10T13:30:05;42.85;;;17.85;;
15990;SDS011;8100;50.994;4.538;2022-12-10T13:33:16;45.08;;;18.45;;
15990;SDS011;8100;50.994;4.538;2022-12-10T13:36:06;44.20;;;18.63;;
15990;SDS011;8100;50.994;4.538;2022-12-10T13:39:11;46.67;;;18.83;;
15990;SDS011;8100;50.994;4.538;2022-12-10T13:45:34;39.15;;;16.15;;
15990;SDS011;8100;50.994;4.538;2022-12-10T13:48:26;39.67;;;16.58;;
15990;SDS011;8100;50.994;4.538;2022-12-10T13:51:26;37.15;;;15.98;;
15990;SDS011;8100;50.994;4.538;2022-12-10T14:01:29;37.42;;;17.00;;
15990;SDS011;8100;50.994;4.538;2022-12-10T14:04:33;42.58;;;17.02;;
15990;SDS011;8100;50.994;4.538;2022-12-10T14:07:34;41.83;;;16.48;;
15990;SDS011;8100;50.994;4.538;2022-12-10T14:10:23;42.17;;;17.65;;
15990;SDS011;8100;50.994;4.538;2022-12-10T14:13:14;33.90;;;14.68;;
15990;SDS011;8100;50.994;4.538;2022-12-10T14:16:09;33.78;;;14.63;;
15990;SDS011;8100;50.994;4.538;2022-12-10T14:18:59;36.15;;;15.00;;
15990;SDS011;8100;50.994;4.538;2022-12-10T14:21:49;36.53;;;15.02;;
15990;SDS011;8100;50.994;4.538;2022-12-10T14:24:37;33.97;;;15.02;;
15990;SDS011;8100;50.994;4.538;2022-12-10T14:27:28;37.15;;;15.80;;
15990;SDS011;8100;50.994;4.538;2022-12-10T14:30:17;39.67;;;15.60;;
15990;SDS011;8100;50.994;4.538;2022-12-10T14:33:08;31.67;;;13.68;;
15990;SDS011;8100;50.994;4.538;2022-12-10T14:35:59;31.25;;;13.68;;
15990;SDS011;8100;50.994;4.538;2022-12-10T14:38:47;37.28;;;14.50;;
15990;SDS011;8100;50.994;4.538;2022-12-10T14:41:36;34.53;;;14.07;;
15990;SDS011;8100;50.994;4.538;2022-12-10T14:44:23;30.25;;;13.70;;
15990;SDS011;8100;50.994;4.538;2022-12-10T14:47:13;33.72;;;14.57;;
15990;SDS011;8100;50.994;4.538;2022-12-10T14:50:04;30.33;;;13.63;;
15990;SDS011;8100;50.994;4.538;2022-12-10T14:52:56;34.45;;;14.13;;
15990;SDS011;8100;50.994;4.538;2022-12-10T14:55:44;28.42;;;12.60;;
15990;SDS011;8100;50.994;4.538;2022-12-10T14:58:35;31.20;;;14.07;;
15990;SDS011;8100;50.994;4.538;2022-12-10T15:01:26;32.03;;;14.05;;
15990;SDS011;8100;50.994;4.538;2022-12-10T15:04:16;33.72;;;13.73;;
15990;SDS011;8100;50.994;4.538;2022-12-10T15:07:08;31.45;;;13.93;;
15990;SDS011;8100;50.994;4.538;2022-12-10T15:10:00;33.17;;;13.88;;
15990;SDS011;8100;50.994;4.538;2022-12-10T15:12:51;33.33;;;14.13;;
15990;SDS011;8100;50.994;4.538;2022-12-10T15:15:39;34.92;;;13.60;;
15990;SDS011;8100;50.994;4.538;2022-12-10T15:18:28;33.72;;;14.27;;
15990;SDS011;8100;50.994;4.538;2022-12-10T15:21:19;32.63;;;13.88;;
15990;SDS011;8100;50.994;4.538;2022-12-10T15:24:13;31.33;;;13.43;;
15990;SDS011;8100;50.994;4.538;2022-12-10T15:27:02;34.92;;;13.73;;
15990;SDS011;8100;50.994;4.538;2022-12-10T15:30:20;29.10;;;12.73;;
15990;SDS011;8100;50.994;4.538;2022-12-10T15:33:21;31.55;;;13.85;;
15990;SDS011;8100;50.994;4.538;2022-12-10T15:36:20;27.67;;;12.68;;
15990;SDS011;8100;50.994;4.538;2022-12-10T15:39:15;29.95;;;12.70;;
15990;SDS011;8100;50.994;4.538;2022-12-10T15:42:04;30.58;;;12.55;;
15990;SDS011;8100;50.994;4.538;2022-12-10T15:44:54;28.70;;;12.50;;
15990;SDS011;8100;50.994;4.538;2022-12-10T15:47:44;29.65;;;12.35;;
15990;SDS011;8100;50.994;4.538;2022-12-10T15:50:31;29.00;;;12.35;;
15990;SDS011;8100;50.994;4.538;2022-12-10T15:53:21;27.13;;;11.82;;
15990;SDS011;8100;50.994;4.538;2022-12-10T15:56:14;31.45;;;13.10;;
15990;SDS011;8100;50.994;4.538;2022-12-10T15:59:01;28.30;;;11.60;;
15990;SDS011;8100;50.994;4.538;2022-12-10T16:01:49;28.80;;;12.50;;
15990;SDS011;8100;50.994;4.538;2022-12-10T16:04:36;32.35;;;13.00;;
15990;SDS011;8100;50.994;4.538;2022-12-10T16:07:23;35.25;;;13.18;;
15990;SDS011;8100;50.994;4.538;2022-12-10T16:10:14;32.28;;;13.57;;
15990;SDS011;8100;50.994;4.538;2022-12-10T16:13:05;30.70;;;12.60;;
15990;SDS011;8100;50.994;4.538;2022-12-10T16:15:57;33.72;;;12.77;;
15990;SDS011;8100;50.994;4.538;2022-12-10T16:18:46;32.25;;;13.68;;
15990;SDS011;8100;50.994;4.538;2022-12-10T16:21:33;32.20;;;12.77;;
15990;SDS011;8100;50.994;4.538;2022-12-10T16:24:20;32.58;;;13.25;;
15990;SDS011;8100;50.994;4.538;2022-12-10T16:27:10;34.20;;;13.10;;
15990;SDS011;8100;50.994;4.538;2022-12-10T16:30:01;34.13;;;13.07;;
15990;SDS011;8100;50.994;4.538;2022-12-10T16:32:48;29.25;;;12.70;;
15990;SDS011;8100;50.994;4.538;2022-12-10T16:35:36;31.60;;;13.07;;
15990;SDS011;8100;50.994;4.538;2022-12-10T16:38:23;29.25;;;12.70;;
15990;SDS011;8100;50.994;4.538;2022-12-10T16:41:16;32.00;;;12.82;;
15990;SDS011;8100;50.994;4.538;2022-12-10T16:44:04;32.65;;;13.45;;
15990;SDS011;8100;50.994;4.538;2022-12-10T16:46:53;32.70;;;13.95;;
15990;SDS011;8100;50.994;4.538;2022-12-10T16:49:40;32.28;;;13.38;;
15990;SDS011;8100;50.994;4.538;2022-12-10T16:52:27;32.88;;;13.13;;
15990;SDS011;8100;50.994;4.538;2022-12-10T16:55:16;30.52;;;13.52;;
15990;SDS011;8100;50.994;4.538;2022-12-10T16:58:05;28.23;;;12.70;;
15990;SDS011;8100;50.994;4.538;2022-12-10T17:00:55;28.70;;;12.90;;
15990;SDS011;8100;50.994;4.538;2022-12-10T17:03:44;27.05;;;12.43;;
15990;SDS011;8100;50.994;4.538;2022-12-10T17:06:31;31.70;;;12.75;;
15990;SDS011;8100;50.994;4.538;2022-12-10T17:09:18;28.73;;;13.10;;